Red Deer Regional Airport
CYQF : now visible

Airfield :











YOU CAN JOIN US ON...

 
LOGIN :

Register | Disclaimer

   EN    FR    IT 

 









Legend :    VFR   Marginal VFR   IFR   Intensive IFR   Very Intensive IFR
Visi :
Ceiling :
>= 8 km
>= 3000ft
5 to 8 km
1000 to 3000 ft
1500m to 5 km
500 to 1000 ft
800 to 1500m
200 to 500 ft
< 800m
< 200 ft
Symbols :   Thunderstorms  Fog  Heavy snow  Heavy precipitations  Wind > 20 kt






- Airport Elevation : 2968 ft
- IATA code : YQF


CYQF - Red Deer Regional

CURRENT METAR :
  • 170400Z 07002KT 15SM SCT100 M12/M13 A2984 RMK AC3 SLP176

EXPIRED METARs :
  • 170300Z 18004KT 15SM SCT060 BKN160 M10/M11 A2982 RMK SC3AC3 SLP170
  • 170200Z 18005KT 15SM SCT084 BKN140 BKN250 M10/M11 A2981 RMK AC4AC1CI1 SLP162

TAF TAF CYQF
Valid from the 17 at 00:00 until the 17 at 12:00 UTC


162338Z 1700/1712 VRB03KT P6SM SCT030 BKN100 BKN220
BECMG 1701/1703 06006KT
FM170600 12006KT P6SM FEW008 SCT080
FM170900 15005KT 2SM BR OVC006
TEMPO 1709/1712 P6SM NSW OVC012
PROB40 1710/1712 1/2SM FZFG VV003 RMK NXT FCST BY 170600Z



MET'MAP, your aeronautical weather chart ! - Copyright ORBIFLY December 2007 - Disclaimer

ORBIFLY MET'MAP TEAM :

Programming & Development : Alexandra Zaïnal
Concept & original design : Baudouin d'Aumeries
Assistance for programming : Marc-Olivier Méhu
Technical & hardware support : Manuel Goepfert

Contact : metmap@orbifly.com




SOURCES & CREDITS :

   NOAA       Earth
Advisory